Time;durP1;ratioP1;P1;durP2;ratioP2;P2;SDS_P1;SDS_P2;PMS_P1;PMS_P2;Temp;Humidity;BMP_temperature;BMP_pressure;BME280_temperature;BME280_humidity;BME280_pressure;Samples;Min_cycle;Max_cycle;Signal;HPM_P1;HPM_P2
2024/03/05 00:02:17;;;;;;;;;;;;;;;4.07;60.31;100951.59;107522;1253;107819;-69
2024/03/05 00:04:46;;;;;;;;;;;;;;;4.05;60.57;100949.05;107621;1254;107638;-69
2024/03/05 00:07:15;;;;;;;;;;;;;;;4.02;60.52;100953.15;107615;1254;98146;-69
2024/03/05 00:09:43;;;;;;;;;;;;;;;3.98;60.55;100948.58;107606;1254;97727;-68
2024/03/05 00:12:12;;;;;;;;;;;;;;;3.95;60.45;100949.48;107523;1254;111164;-67
2024/03/05 00:14:41;;;;;;;;;;;;;;;3.90;60.64;100945.81;107553;1254;107880;-67
2024/03/05 00:17:09;;;;;;;;;;;;;;;3.90;60.42;100951.84;107535;1254;108062;-66
2024/03/05 00:19:37;;;;;;;;;;;;;;;3.87;60.48;100947.05;107547;1254;97872;-68
2024/03/05 00:22:05;;;;;;;;;;;;;;;3.83;60.66;100947.13;107658;1254;97816;-66
2024/03/05 00:24:34;;;;;;;;;;;;;;;3.77;60.78;100943.36;107637;1254;110682;-69
2024/03/05 00:27:02;;;;;;;;;;;;;;;3.74;60.71;100944.26;107629;1252;108270;-69
2024/03/05 00:29:31;;;;;;;;;;;;;;;3.71;60.92;100944.27;107476;1254;108623;-67
2024/03/05 00:32:00;;;;;;;;;;;;;;;3.66;60.95;100941.16;107509;1252;97903;-67
2024/03/05 00:34:28;;;;;;;;;;;;;;;3.63;61.28;100944.72;107622;1253;97913;-68
2024/03/05 00:36:57;;;;;;;;;;;;;;;3.58;61.22;100944.08;107613;1254;112267;-68
2024/03/05 00:39:25;;;;;;;;;;;;;;;3.55;61.01;100944.42;107627;1254;108453;-69
2024/03/05 00:41:54;;;;;;;;;;;;;;;3.53;61.22;100940.83;107503;1254;107814;-68
2024/03/05 00:44:22;;;;;;;;;;;;;;;3.50;61.19;100936.05;107514;1253;97828;-68
2024/03/05 00:46:52;;;;;;;;;;;;;;;3.47;61.35;100936.55;107531;1254;97842;-68
2024/03/05 00:49:23;;;;;;;;;;;;;;;3.45;61.32;100938.79;107574;1254;111886;-68
2024/03/05 00:51:51;;;;;;;;;;;;;;;3.42;61.74;100938.58;107560;1254;108547;-68
2024/03/05 00:54:20;;;;;;;;;;;;;;;3.41;61.81;100936.69;107538;1254;107985;-71
2024/03/05 00:56:48;;;;;;;;;;;;;;;3.40;61.73;100931.83;107540;1253;97827;-71
2024/03/05 00:59:16;;;;;;;;;;;;;;;3.38;61.54;100928.91;107518;1254;97879;-71
2024/03/05 01:01:44;;;;;;;;;;;;;;;3.36;61.86;100928.97;107532;1254;110871;-71
2024/03/05 01:04:14;;;;;;;;;;;;;;;3.36;61.42;100930.77;107541;1254;108713;-68
2024/03/05 01:06:45;;;;;;;;;;;;;;;3.36;61.71;100927.78;107548;1254;107278;-67
2024/03/05 01:09:19;;;;;;;;;;;;;;;3.34;61.62;100925.05;107539;1254;97825;-67
2024/03/05 01:11:47;;;;;;;;;;;;;;;3.28;61.41;100926.60;107631;1254;97845;-68
2024/03/05 01:14:15;;;;;;;;;;;;;;;3.25;61.62;100929.59;107628;1253;111994;-67
2024/03/05 01:16:44;;;;;;;;;;;;;;;3.23;61.77;100926.91;107512;1254;108384;-68
2024/03/05 01:19:13;;;;;;;;;;;;;;;3.21;61.85;100924.89;107570;1256;108808;-69
2024/03/05 01:21:41;;;;;;;;;;;;;;;3.18;61.65;100928.25;107556;1254;97976;-68
2024/03/05 01:24:09;;;;;;;;;;;;;;;3.12;61.64;100926.59;107529;1256;97844;-68
2024/03/05 01:26:38;;;;;;;;;;;;;;;3.07;61.50;100933.08;107552;1254;111800;-71
2024/03/05 01:29:07;;;;;;;;;;;;;;;3.03;61.56;100934.70;107547;1254;108837;-68
2024/03/05 01:31:36;;;;;;;;;;;;;;;3.00;62.10;100936.32;107626;1254;107858;-69
2024/03/05 01:34:05;;;;;;;;;;;;;;;2.97;61.93;100935.56;107667;1255;97826;-66
2024/03/05 01:36:33;;;;;;;;;;;;;;;2.96;62.06;100935.80;107635;1254;97900;-68
2024/03/05 01:39:03;;;;;;;;;;;;;;;2.94;62.06;100935.91;107575;1254;112218;-70
2024/03/05 01:41:31;;;;;;;;;;;;;;;2.92;62.03;100936.16;107584;1253;107507;-68
2024/03/05 01:43:59;;;;;;;;;;;;;;;2.87;62.21;100933.80;107577;1256;107677;-68
2024/03/05 01:46:28;;;;;;;;;;;;;;;2.84;62.46;100935.05;107556;1251;97932;-68
2024/03/05 01:48:56;;;;;;;;;;;;;;;2.80;62.43;100935.23;107551;1254;97886;-69
2024/03/05 01:51:25;;;;;;;;;;;;;;;2.76;62.30;100935.05;107594;1256;111426;-69
2024/03/05 01:53:54;;;;;;;;;;;;;;;2.73;62.15;100935.79;107605;1254;108406;-69
2024/03/05 01:56:22;;;;;;;;;;;;;;;2.68;62.33;100934.63;107550;1254;108695;-69
2024/03/05 01:58:51;;;;;;;;;;;;;;;2.63;62.56;100938.27;107593;1254;97759;-68
2024/03/05 02:01:21;;;;;;;;;;;;;;;2.59;62.88;100937.02;107645;1253;97726;-69
2024/03/05 02:03:50;;;;;;;;;;;;;;;2.56;62.62;100935.95;107629;1254;111189;-69
2024/03/05 02:06:19;;;;;;;;;;;;;;;2.51;62.88;100936.23;107600;1256;106947;-69
2024/03/05 02:08:47;;;;;;;;;;;;;;;2.44;62.90;100934.25;107566;1256;106981;-66
2024/03/05 02:11:16;;;;;;;;;;;;;;;2.40;63.26;100934.12;107511;1255;97842;-67
2024/03/05 02:13:45;;;;;;;;;;;;;;;2.37;63.24;100935.52;107630;1254;97831;-68
2024/03/05 02:16:13;;;;;;;;;;;;;;;2.34;63.13;100934.92;107606;1254;111628;-69
2024/03/05 02:18:41;;;;;;;;;;;;;;;2.34;63.47;100937.09;107589;1254;108232;-68
2024/03/05 02:21:18;;;;;;;;;;;;;;;2.34;63.05;100939.06;107594;1253;108166;-68
2024/03/05 02:23:47;;;;;;;;;;;;;;;2.30;63.30;100939.40;107547;1255;97713;-69
2024/03/05 02:26:17;;;;;;;;;;;;;;;2.25;63.58;100939.16;107557;1254;97855;-67
2024/03/05 02:28:47;;;;;;;;;;;;;;;2.19;63.70;100942.98;107608;1254;112062;-67
2024/03/05 02:31:15;;;;;;;;;;;;;;;2.16;63.89;100950.36;107572;1254;108160;-66
2024/03/05 02:33:43;;;;;;;;;;;;;;;2.18;64.30;100946.23;107574;1255;107635;-68
2024/03/05 02:36:12;;;;;;;;;;;;;;;2.20;64.16;100949.11;107562;1254;97867;-67
2024/03/05 02:38:40;;;;;;;;;;;;;;;2.20;64.42;100946.48;107585;1254;97915;-67
2024/03/05 02:41:08;;;;;;;;;;;;;;;2.15;65.31;100943.72;107593;1251;111957;-72
2024/03/05 02:43:37;;;;;;;;;;;;;;;2.08;65.71;100946.38;107657;1251;107972;-67
2024/03/05 02:46:06;;;;;;;;;;;;;;;2.01;66.35;100944.06;107628;1252;108292;-68
2024/03/05 02:48:34;;;;;;;;;;;;;;;1.94;67.12;100950.06;107534;1254;97844;-67
2024/03/05 02:51:04;;;;;;;;;;;;;;;1.86;67.24;100950.96;107554;1254;97947;-69
2024/03/05 02:53:34;;;;;;;;;;;;;;;1.81;67.91;100954.42;107644;1254;112921;-69
2024/03/05 02:56:04;;;;;;;;;;;;;;;1.78;68.14;100958.63;107602;1254;107383;-67
2024/03/05 02:58:33;;;;;;;;;;;;;;;1.79;68.63;100959.79;107579;1254;107022;-68
2024/03/05 03:01:02;;;;;;;;;;;;;;;1.84;68.99;100954.60;107577;1256;98386;-67
2024/03/05 03:03:31;;;;;;;;;;;;;;;1.85;69.10;100955.09;107535;1255;97819;-69
2024/03/05 03:06:01;;;;;;;;;;;;;;;1.85;69.00;100957.75;107658;1251;112219;-68
2024/03/05 03:08:29;;;;;;;;;;;;;;;1.82;69.50;100957.55;107541;1252;109446;-67
2024/03/05 03:10:57;;;;;;;;;;;;;;;1.73;69.14;100963.09;107568;1251;107666;-67
2024/03/05 03:13:26;;;;;;;;;;;;;;;1.65;69.55;100964.21;107589;1251;97893;-67
2024/03/05 03:15:54;;;;;;;;;;;;;;;1.61;69.20;100963.89;107649;1251;97729;-68
2024/03/05 03:18:22;;;;;;;;;;;;;;;1.59;69.28;100960.98;107584;1256;111867;-68
2024/03/05 03:20:50;;;;;;;;;;;;;;;1.59;69.13;100962.73;107559;1254;107970;-68
2024/03/05 03:23:18;;;;;;;;;;;;;;;1.61;68.99;100970.94;107578;1257;107390;-69
2024/03/05 03:25:47;;;;;;;;;;;;;;;1.64;69.29;100967.80;107589;1254;98565;-69
2024/03/05 03:28:15;;;;;;;;;;;;;;;1.65;68.89;100968.45;107571;1254;97832;-65
2024/03/05 03:30:43;;;;;;;;;;;;;;;1.65;69.55;100974.96;107550;1257;112328;-67
2024/03/05 03:33:12;;;;;;;;;;;;;;;1.63;69.70;100976.14;107574;1254;108168;-69
2024/03/05 03:35:41;;;;;;;;;;;;;;;1.63;69.68;100975.45;107536;1251;107242;-67
2024/03/05 03:38:09;;;;;;;;;;;;;;;1.62;70.74;100976.56;107587;1256;97930;-69
2024/03/05 03:40:38;;;;;;;;;;;;;;;1.58;70.28;100977.95;107586;1256;97723;-68
2024/03/05 03:43:06;;;;;;;;;;;;;;;1.54;70.23;100974.98;107590;1257;110714;-68
2024/03/05 03:45:34;;;;;;;;;;;;;;;1.51;70.32;100975.48;107600;1254;108287;-67
2024/03/05 03:48:04;;;;;;;;;;;;;;;1.51;70.12;100979.38;107613;1251;107155;-68
2024/03/05 03:50:33;;;;;;;;;;;;;;;1.51;70.17;100980.44;107590;1251;98348;-68
2024/03/05 03:53:01;;;;;;;;;;;;;;;1.50;69.99;100983.10;107493;1250;97819;-69
2024/03/05 03:55:29;;;;;;;;;;;;;;;1.53;69.96;100984.92;107545;1251;111318;-70
2024/03/05 03:57:57;;;;;;;;;;;;;;;1.54;70.48;100985.21;107522;1254;109517;-68
2024/03/05 04:00:25;;;;;;;;;;;;;;;1.52;70.59;100987.42;107577;1256;108097;-68
2024/03/05 04:02:53;;;;;;;;;;;;;;;1.51;70.75;100989.08;107597;1255;97831;-68
2024/03/05 04:05:22;;;;;;;;;;;;;;;1.44;71.05;100993.28;107618;1254;97928;-67
2024/03/05 04:07:50;;;;;;;;;;;;;;;1.34;70.95;100993.03;107596;1257;112087;-67
2024/03/05 04:10:18;;;;;;;;;;;;;;;1.25;71.27;100990.80;107642;1257;108046;-67
2024/03/05 04:12:47;;;;;;;;;;;;;;;1.19;71.30;100999.41;107590;1254;107957;-68
2024/03/05 04:15:18;;;;;;;;;;;;;;;1.12;71.57;100999.71;107565;1254;97822;-68
2024/03/05 04:17:48;;;;;;;;;;;;;;;1.07;71.99;101004.89;107582;1256;97899;-68
2024/03/05 04:20:16;;;;;;;;;;;;;;;1.00;72.00;101007.83;107534;1251;111486;-68
2024/03/05 04:22:45;;;;;;;;;;;;;;;0.96;72.67;101006.42;107565;1251;108046;-68
2024/03/05 04:25:14;;;;;;;;;;;;;;;0.95;73.51;101006.30;107507;1251;108127;-69
2024/03/05 04:27:45;;;;;;;;;;;;;;;0.99;74.01;101004.00;107470;1251;97717;-69
2024/03/05 04:30:15;;;;;;;;;;;;;;;1.02;75.05;101003.14;107543;1251;97883;-69
2024/03/05 04:32:46;;;;;;;;;;;;;;;1.07;74.69;101008.58;107717;1256;111196;-68
2024/03/05 04:35:27;;;;;;;;;;;;;;;1.15;75.48;101010.02;107616;1251;108593;-68
2024/03/05 04:37:57;;;;;;;;;;;;;;;1.18;75.75;101007.21;107467;1254;108634;-67
2024/03/05 04:40:26;;;;;;;;;;;;;;;1.17;75.80;101007.43;107554;1255;97856;-69
2024/03/05 04:42:55;;;;;;;;;;;;;;;1.15;76.27;101006.98;107617;1254;96643;-69
2024/03/05 04:45:26;;;;;;;;;;;;;;;1.14;77.23;101007.77;107554;1254;111262;-68
2024/03/05 04:47:55;;;;;;;;;;;;;;;1.12;77.76;101008.38;107632;1256;107325;-67
2024/03/05 04:50:23;;;;;;;;;;;;;;;1.12;77.72;101013.15;107575;1256;108895;-67
2024/03/05 04:52:52;;;;;;;;;;;;;;;1.15;77.83;101015.14;107585;1257;97894;-68
2024/03/05 04:55:22;;;;;;;;;;;;;;;1.17;78.30;101014.88;107580;1255;97850;-68
2024/03/05 04:57:51;;;;;;;;;;;;;;;1.22;78.40;101017.44;107558;1251;111654;-68
2024/03/05 05:00:20;;;;;;;;;;;;;;;1.33;78.45;101014.33;107628;1254;108394;-68
2024/03/05 05:02:50;;;;;;;;;;;;;;;1.46;78.32;101014.42;107645;1254;106771;-69
2024/03/05 05:05:21;;;;;;;;;;;;;;;1.59;78.84;101018.95;107577;1254;97831;-68
2024/03/05 05:07:50;;;;;;;;;;;;;;;1.61;78.97;101024.84;107609;1254;97853;-66
2024/03/05 05:10:18;;;;;;;;;;;;;;;1.57;78.83;101029.29;107523;1255;112016;-66
2024/03/05 05:12:47;;;;;;;;;;;;;;;1.60;78.42;101031.64;107598;1254;107366;-66
2024/03/05 05:15:15;;;;;;;;;;;;;;;1.64;78.73;101033.91;107579;1254;108032;-66
2024/03/05 05:17:46;;;;;;;;;;;;;;;1.70;78.43;101038.02;107486;1256;97847;-68
2024/03/05 05:20:15;;;;;;;;;;;;;;;1.75;78.94;101037.31;107616;1252;97826;-67
2024/03/05 05:22:44;;;;;;;;;;;;;;;1.79;78.90;101040.63;107578;1253;111761;-68
2024/03/05 05:25:19;;;;;;;;;;;;;;;1.81;79.01;101045.84;107633;1252;107653;-67
2024/03/05 05:27:48;;;;;;;;;;;;;;;1.84;79.41;101047.27;107421;1255;108423;-69
2024/03/05 05:30:18;;;;;;;;;;;;;;;1.92;79.83;101048.86;107598;1253;97710;-69
2024/03/05 05:32:50;;;;;;;;;;;;;;;1.99;80.01;101051.17;107561;1254;97903;-68
2024/03/05 05:35:18;;;;;;;;;;;;;;;2.10;80.36;101054.38;107656;1253;111225;-68
2024/03/05 05:37:47;;;;;;;;;;;;;;;2.18;79.94;101054.48;107637;1257;108259;-66
2024/03/05 05:40:19;;;;;;;;;;;;;;;2.19;79.41;101055.02;107585;1254;107544;-66
2024/03/05 05:42:50;;;;;;;;;;;;;;;2.17;79.40;101053.33;107587;1254;98603;-65
2024/03/05 05:45:21;;;;;;;;;;;;;;;2.16;79.47;101054.98;107653;1254;97825;-67
2024/03/05 05:47:53;;;;;;;;;;;;;;;2.12;79.63;101056.04;107535;1254;111934;-67
2024/03/05 05:50:28;;;;;;;;;;;;;;;2.13;79.54;101058.14;107567;1251;108065;-66
2024/03/05 05:52:58;;;;;;;;;;;;;;;2.15;79.73;101060.13;107550;1251;108531;-67
2024/03/05 05:55:27;;;;;;;;;;;;;;;2.17;79.54;101064.09;107619;1254;97817;-70
2024/03/05 05:57:56;;;;;;;;;;;;;;;2.19;80.23;101065.06;107647;1254;97887;-67
2024/03/05 06:00:32;;;;;;;;;;;;;;;2.28;80.62;101068.73;107652;1251;111017;-67
2024/03/05 06:03:10;;;;;;;;;;;;;;;2.38;80.51;101070.88;107471;1254;108384;-68
2024/03/05 06:05:42;;;;;;;;;;;;;;;2.48;80.42;101069.13;107501;1251;108220;-70
2024/03/05 06:08:11;;;;;;;;;;;;;;;2.52;80.13;101069.84;107563;1251;97819;-67
2024/03/05 06:10:43;;;;;;;;;;;;;;;2.52;79.75;101071.27;107530;1253;97799;-67
2024/03/05 06:13:12;;;;;;;;;;;;;;;2.44;79.40;101077.66;107452;1254;111918;-65
2024/03/05 06:15:40;;;;;;;;;;;;;;;2.49;79.23;101079.89;107622;1254;107917;-66
2024/03/05 06:18:08;;;;;;;;;;;;;;;2.45;79.30;101080.79;107668;1252;107021;-65
2024/03/05 06:20:36;;;;;;;;;;;;;;;2.44;79.49;101086.16;107483;1251;98067;-65
2024/03/05 06:23:05;;;;;;;;;;;;;;;2.49;79.52;101091.23;107569;1254;97720;-66
2024/03/05 06:25:33;;;;;;;;;;;;;;;2.52;79.18;101091.98;107636;1255;111788;-67
2024/03/05 06:28:02;;;;;;;;;;;;;;;2.56;79.10;101088.76;107529;1251;108647;-68
2024/03/05 06:30:31;;;;;;;;;;;;;;;2.53;79.36;101094.39;107468;1254;107730;-70
2024/03/05 06:32:59;;;;;;;;;;;;;;;2.54;79.51;101092.59;107455;1253;97835;-68
2024/03/05 06:35:29;;;;;;;;;;;;;;;2.58;78.99;101085.28;107611;1254;97838;-68
2024/03/05 06:38:00;;;;;;;;;;;;;;;2.61;79.09;101084.77;107622;1254;111638;-70
2024/03/05 06:40:29;;;;;;;;;;;;;;;2.62;79.23;101087.74;107523;1254;108326;-68
2024/03/05 06:43:04;;;;;;;;;;;;;;;2.66;78.82;101088.63;107472;1254;106585;-66
2024/03/05 06:45:35;;;;;;;;;;;;;;;2.68;78.47;101088.54;107355;1254;97890;-67
2024/03/05 06:48:07;;;;;;;;;;;;;;;2.70;78.37;101093.02;107332;1254;97832;-65
2024/03/05 06:50:41;;;;;;;;;;;;;;;2.71;78.48;101095.30;107552;1254;112426;-65
2024/03/05 06:58:46;;;;;;;;;;;;;;;2.81;78.26;101099.39;107408;1256;98011;-68
2024/03/05 07:01:15;;;;;;;;;;;;;;;2.85;77.95;101098.81;107522;1251;97889;-69
2024/03/05 07:03:43;;;;;;;;;;;;;;;2.89;77.81;101096.52;107378;1254;110947;-67
2024/03/05 07:06:12;;;;;;;;;;;;;;;2.95;77.88;101099.75;107502;1256;108349;-67
2024/03/05 07:08:46;;;;;;;;;;;;;;;2.96;77.89;101098.42;107477;1254;108202;-69
2024/03/05 07:11:18;;;;;;;;;;;;;;;3.01;78.01;101101.55;107479;1254;97823;-68
2024/03/05 07:13:48;;;;;;;;;;;;;;;3.03;77.27;101103.39;107382;1254;97883;-68
2024/03/05 07:16:18;;;;;;;;;;;;;;;2.96;77.15;101105.36;107444;1254;111839;-68
2024/03/05 07:18:48;;;;;;;;;;;;;;;2.98;76.97;101107.57;107444;1254;108211;-68
2024/03/05 07:21:17;;;;;;;;;;;;;;;2.98;76.82;101109.84;107468;1256;108241;-66
2024/03/05 07:23:48;;;;;;;;;;;;;;;2.95;76.57;101112.29;107427;1256;98011;-66
2024/03/05 07:26:17;;;;;;;;;;;;;;;2.97;76.50;101115.39;107340;1254;97877;-67
2024/03/05 07:28:45;;;;;;;;;;;;;;;2.90;76.60;101114.67;107465;1257;111429;-69
2024/03/05 07:31:15;;;;;;;;;;;;;;;2.85;76.63;101118.31;107399;1253;107668;-70
2024/03/05 07:33:44;;;;;;;;;;;;;;;2.92;76.88;101116.55;107434;1253;107795;-70
2024/03/05 07:36:17;;;;;;;;;;;;;;;2.97;77.13;101120.35;107459;1254;98536;-68
2024/03/05 07:38:46;;;;;;;;;;;;;;;3.02;76.95;101118.20;107665;1254;97819;-69
2024/03/05 07:41:14;;;;;;;;;;;;;;;3.08;76.77;101125.81;107465;1256;111911;-69
2024/03/05 07:43:56;;;;;;;;;;;;;;;3.12;76.16;101123.86;107506;1254;107794;-68
2024/03/05 07:46:25;;;;;;;;;;;;;;;3.06;75.96;101122.38;107519;1254;108179;-68
2024/03/05 07:48:53;;;;;;;;;;;;;;;3.03;76.23;101121.11;107477;1254;97848;-67
2024/03/05 07:51:22;;;;;;;;;;;;;;;2.98;76.17;101119.81;107453;1251;97787;-67
2024/03/05 07:53:56;;;;;;;;;;;;;;;2.90;76.44;101126.23;107502;1255;110893;-66
2024/03/05 07:56:24;;;;;;;;;;;;;;;2.87;76.72;101128.45;107443;1255;108463;-66
2024/03/05 07:58:52;;;;;;;;;;;;;;;2.84;76.64;101130.20;107493;1256;107854;-68
2024/03/05 08:01:21;;;;;;;;;;;;;;;2.87;76.81;101129.23;107419;1252;97889;-68
2024/03/05 08:03:49;;;;;;;;;;;;;;;2.95;76.68;101129.53;107487;1254;97853;-69
2024/03/05 08:06:18;;;;;;;;;;;;;;;3.03;76.67;101124.50;107495;1255;111506;-69
2024/03/05 08:08:46;;;;;;;;;;;;;;;3.15;76.59;101123.16;107522;1254;107413;-69
2024/03/05 08:11:14;;;;;;;;;;;;;;;3.27;76.28;101126.08;107426;1252;107824;-69
2024/03/05 08:13:45;;;;;;;;;;;;;;;3.35;75.88;101131.91;107531;1256;97823;-68
2024/03/05 08:16:14;;;;;;;;;;;;;;;3.35;75.30;101129.07;107537;1251;97823;-67
2024/03/05 08:18:43;;;;;;;;;;;;;;;3.36;75.03;101128.47;107498;1254;111928;-67
2024/03/05 08:21:11;;;;;;;;;;;;;;;3.33;74.91;101133.42;107483;1251;107849;-67
2024/03/05 08:23:39;;;;;;;;;;;;;;;3.31;74.95;101132.46;107580;1252;109568;-64
2024/03/05 08:26:08;;;;;;;;;;;;;;;3.37;75.00;101131.41;107612;1254;97848;-66
2024/03/05 08:28:36;;;;;;;;;;;;;;;3.39;74.85;101128.66;107653;1254;98488;-66
2024/03/05 08:31:08;;;;;;;;;;;;;;;3.39;74.77;101130.77;107645;1251;110532;-67
2024/03/05 08:33:36;;;;;;;;;;;;;;;3.46;74.86;101134.67;107571;1251;108072;-69
2024/03/05 08:36:04;;;;;;;;;;;;;;;3.52;74.70;101135.46;107576;1254;108231;-71
2024/03/05 08:38:32;;;;;;;;;;;;;;;3.61;74.41;101134.59;107502;1251;97822;-69
2024/03/05 08:41:01;;;;;;;;;;;;;;;3.68;74.35;101136.18;107542;1251;97738;-68
2024/03/05 08:43:30;;;;;;;;;;;;;;;3.73;73.96;101131.96;107552;1254;111045;-68
2024/03/05 08:45:59;;;;;;;;;;;;;;;3.75;73.82;101133.83;107452;1254;108442;-69
2024/03/05 08:48:28;;;;;;;;;;;;;;;3.82;73.89;101132.77;107479;1254;208346;-68
2024/03/05 08:50:59;;;;;;;;;;;;;;;3.88;73.42;101132.08;107572;1256;97975;-67
2024/03/05 08:53:29;;;;;;;;;;;;;;;3.88;73.28;101130.85;107642;1254;97832;-67
2024/03/05 08:55:57;;;;;;;;;;;;;;;3.92;73.17;101132.03;107561;1254;111599;-66
2024/03/05 08:58:27;;;;;;;;;;;;;;;4.02;73.33;101132.02;107670;1254;107225;-67
2024/03/05 09:00:55;;;;;;;;;;;;;;;4.17;73.20;101133.33;107586;1254;107255;-67
2024/03/05 09:03:24;;;;;;;;;;;;;;;4.18;72.62;101139.16;107571;1254;97818;-67
2024/03/05 09:05:52;;;;;;;;;;;;;;;4.25;72.87;101139.29;107607;1255;97858;-69
2024/03/05 09:08:21;;;;;;;;;;;;;;;4.43;72.64;101141.48;107630;1254;111251;-70
2024/03/05 09:10:50;;;;;;;;;;;;;;;4.58;72.17;101139.58;107599;1254;107907;-73
2024/03/05 09:13:18;;;;;;;;;;;;;;;4.65;71.42;101141.84;107628;1253;107574;-69
2024/03/05 09:15:46;;;;;;;;;;;;;;;4.72;71.25;101140.73;107567;1251;97853;-70
2024/03/05 09:18:16;;;;;;;;;;;;;;;4.79;70.58;101141.17;107422;1251;97945;-68
2024/03/05 09:20:45;;;;;;;;;;;;;;;4.79;70.26;101144.05;107433;1251;111324;-68
2024/03/05 09:23:13;;;;;;;;;;;;;;;4.76;70.38;101145.44;107551;1254;108450;-66
2024/03/05 09:25:42;;;;;;;;;;;;;;;4.84;70.14;101147.83;107569;1253;107773;-64
2024/03/05 09:28:11;;;;;;;;;;;;;;;4.80;69.69;101145.93;107365;1254;97842;-65
2024/03/05 09:30:39;;;;;;;;;;;;;;;4.76;69.82;101149.54;107421;1252;97732;-65
2024/03/05 09:33:09;;;;;;;;;;;;;;;4.73;69.81;101150.77;107445;1251;111833;-67
2024/03/05 09:35:40;;;;;;;;;;;;;;;4.74;69.90;101145.39;107490;1253;107971;-69
2024/03/05 09:38:09;;;;;;;;;;;;;;;4.86;70.14;101149.30;107458;1253;107139;-70
2024/03/05 09:40:40;;;;;;;;;;;;;;;5.06;70.32;101147.25;107584;1255;97877;-70
2024/03/05 09:43:10;;;;;;;;;;;;;;;5.22;69.33;101151.64;107517;1251;98037;-70
2024/03/05 09:45:40;;;;;;;;;;;;;;;5.31;68.94;101147.73;107512;1253;112161;-69
2024/03/05 09:48:09;;;;;;;;;;;;;;;5.39;68.64;101146.36;107562;1254;109077;-69
2024/03/05 09:50:38;;;;;;;;;;;;;;;5.51;68.60;101143.13;107440;1251;107615;-69
2024/03/05 09:53:07;;;;;;;;;;;;;;;5.64;68.35;101139.14;107484;1252;97726;-68
2024/03/05 09:55:35;;;;;;;;;;;;;;;5.70;67.94;101135.38;107480;1255;97935;-69
2024/03/05 09:58:09;;;;;;;;;;;;;;;5.71;67.37;101139.08;107462;1251;112215;-69
2024/03/05 10:00:38;;;;;;;;;;;;;;;5.63;66.97;101136.68;107430;1251;108097;-72
2024/03/05 10:03:08;;;;;;;;;;;;;;;5.60;67.04;101135.85;107406;1251;107661;-72
2024/03/05 10:05:37;;;;;;;;;;;;;;;5.62;66.97;101137.45;107436;1254;97906;-72
2024/03/05 10:08:06;;;;;;;;;;;;;;;5.76;67.14;101139.13;107458;1251;97955;-71
2024/03/05 10:10:34;;;;;;;;;;;;;;;5.95;66.84;101142.94;107445;1254;111236;-70
2024/03/05 10:13:02;;;;;;;;;;;;;;;6.11;66.47;101142.63;107507;1251;107005;-69
2024/03/05 10:15:31;;;;;;;;;;;;;;;6.23;66.04;101137.06;107383;1251;108079;-67
2024/03/05 10:17:59;;;;;;;;;;;;;;;6.34;65.62;101136.74;107454;1252;97922;-69
2024/03/05 10:20:28;;;;;;;;;;;;;;;6.42;65.51;101134.08;107554;1251;97710;-68
2024/03/05 10:22:58;;;;;;;;;;;;;;;6.52;64.98;101129.30;107457;1251;111405;-70
2024/03/05 10:25:28;;;;;;;;;;;;;;;6.52;63.84;101125.59;107429;1254;108908;-69
2024/03/05 10:27:57;;;;;;;;;;;;;;;6.41;64.07;101124.48;107517;1251;107259;-68
2024/03/05 10:30:28;;;;;;;;;;;;;;;6.43;64.30;101125.50;107536;1251;97860;-69
2024/03/05 10:33:00;;;;;;;;;;;;;;;6.45;64.33;101118.73;107484;1251;97929;-68
2024/03/05 10:35:29;;;;;;;;;;;;;;;6.60;64.34;101118.66;107451;1251;111639;-70
2024/03/05 10:38:02;;;;;;;;;;;;;;;6.73;64.04;101115.64;107491;1252;108285;-71
2024/03/05 10:40:32;;;;;;;;;;;;;;;6.84;63.79;101107.81;107507;1254;107141;-69
2024/03/05 10:43:04;;;;;;;;;;;;;;;6.96;63.71;101105.79;107577;1252;97883;-69
2024/03/05 10:45:39;;;;;;;;;;;;;;;7.02;63.16;101104.08;107567;1253;97906;-70
2024/03/05 10:48:09;;;;;;;;;;;;;;;7.02;62.89;101099.27;107633;1256;111402;-68
2024/03/05 10:50:41;;;;;;;;;;;;;;;6.98;62.84;101102.38;107588;1254;107961;-68
2024/03/05 10:53:10;;;;;;;;;;;;;;;7.06;63.05;101103.77;107614;1254;107961;-68
2024/03/05 10:55:39;;;;;;;;;;;;;;;7.14;62.79;101101.33;107611;1254;98120;-68
2024/03/05 11:00:43;;;;;;;;;;;;;;;6.99;62.67;101093.58;107676;1252;112285;-68
2024/03/05 11:03:14;;;;;;;;;;;;;;;6.94;62.49;101089.30;107569;1251;107986;-70
2024/03/05 11:05:56;;;;;;;;;;;;;;;6.96;62.74;101090.91;107581;1251;108607;-70
2024/03/05 11:08:25;;;;;;;;;;;;;;;7.02;62.91;101092.65;107645;1254;97830;-69
2024/03/05 11:11:02;;;;;;;;;;;;;;;7.11;62.57;101093.68;107606;1251;97806;-69
2024/03/05 11:13:32;;;;;;;;;;;;;;;7.22;62.75;101091.68;107676;1250;110890;-68
2024/03/05 11:16:03;;;;;;;;;;;;;;;7.45;62.33;101092.35;107668;1251;108059;-69
2024/03/05 11:18:34;;;;;;;;;;;;;;;7.78;61.99;101087.95;107605;1251;108252;-68
2024/03/05 11:21:07;;;;;;;;;;;;;;;8.06;61.54;101084.66;107634;1251;97979;-68
2024/03/05 11:23:42;;;;;;;;;;;;;;;8.22;60.68;101081.20;107675;1250;97948;-68
2024/03/05 11:26:17;;;;;;;;;;;;;;;8.49;59.61;101080.08;107619;1250;111815;-67
2024/03/05 11:28:46;;;;;;;;;;;;;;;8.80;59.24;101075.63;107608;1251;108044;-69
2024/03/05 11:31:19;;;;;;;;;;;;;;;9.01;58.33;101074.27;107623;1252;108228;-68
2024/03/05 11:34:12;;;;;;;;;;;;;;;9.34;58.43;101076.68;107606;1253;97848;-69
2024/03/05 11:36:41;;;;;;;;;;;;;;;9.82;57.64;101071.66;107398;1252;97750;-70
2024/03/05 11:39:14;;;;;;;;;;;;;;;10.10;56.32;101072.99;107570;1254;111298;-70
2024/03/05 11:41:43;;;;;;;;;;;;;;;10.39;55.88;101073.70;107592;1254;106358;-69
2024/03/05 11:44:13;;;;;;;;;;;;;;;10.93;56.28;101072.23;107520;1254;108517;-69
2024/03/05 11:46:48;;;;;;;;;;;;;;;11.45;54.62;101065.07;107583;1254;97836;-69
2024/03/05 11:49:17;;;;;;;;;;;;;;;11.89;53.56;101064.62;107578;1253;97880;-68
2024/03/05 11:51:46;;;;;;;;;;;;;;;12.04;51.14;101066.92;107424;1254;111157;-69
2024/03/05 11:54:16;;;;;;;;;;;;;;;12.29;50.86;101064.59;107614;1254;107627;-68
2024/03/05 11:57:00;;;;;;;;;;;;;;;12.56;49.52;101065.47;107617;1254;107269;-67
2024/03/05 11:59:38;;;;;;;;;;;;;;;12.53;48.21;101065.67;107527;1254;97847;-66
2024/03/05 12:02:15;;;;;;;;;;;;;;;12.33;48.86;101061.20;107567;1254;97845;-68
2024/03/05 12:04:44;;;;;;;;;;;;;;;12.32;49.45;101063.53;107622;1254;112222;-70
2024/03/05 12:07:13;;;;;;;;;;;;;;;12.60;49.03;101062.73;107489;1254;108121;-69
2024/03/05 12:09:43;;;;;;;;;;;;;;;12.67;48.72;101066.02;107612;1254;106894;-68
2024/03/05 12:12:12;;;;;;;;;;;;;;;12.76;48.64;101066.10;107608;1252;98005;-69
2024/03/05 12:14:44;;;;;;;;;;;;;;;12.84;48.07;101065.55;107601;1254;97725;-69
2024/03/05 12:17:14;;;;;;;;;;;;;;;12.83;46.89;101062.54;107565;1253;110948;-70
2024/03/05 12:19:44;;;;;;;;;;;;;;;12.82;47.22;101064.24;107618;1252;108101;-70
2024/03/05 12:22:12;;;;;;;;;;;;;;;12.82;47.03;101057.75;107573;1252;108912;-69
2024/03/05 12:24:40;;;;;;;;;;;;;;;12.75;45.96;101056.11;107574;1252;98056;-70
2024/03/05 12:27:09;;;;;;;;;;;;;;;12.73;46.16;101055.75;107499;1254;97894;-68
2024/03/05 12:29:40;;;;;;;;;;;;;;;12.73;46.65;101054.02;107595;1254;111708;-67
2024/03/05 12:32:13;;;;;;;;;;;;;;;12.76;46.45;101055.84;107437;1254;108675;-69
2024/03/05 12:34:46;;;;;;;;;;;;;;;12.63;45.56;101057.26;107586;1253;107545;-68
2024/03/05 12:37:15;;;;;;;;;;;;;;;12.58;45.93;101055.17;107586;1253;97848;-67
2024/03/05 12:39:43;;;;;;;;;;;;;;;12.63;45.93;101048.08;107597;1253;97816;-69
2024/03/05 12:42:15;;;;;;;;;;;;;;;12.65;45.66;101045.83;107597;1253;111070;-73
2024/03/05 12:44:44;;;;;;;;;;;;;;;12.85;45.62;101048.52;107638;1254;108517;-71
2024/03/05 12:47:16;;;;;;;;;;;;;;;13.17;45.26;101048.97;107573;1253;107149;-70
2024/03/05 12:49:46;;;;;;;;;;;;;;;13.65;44.13;101049.48;107546;1253;97925;-71
2024/03/05 12:52:20;;;;;;;;;;;;;;;14.26;43.90;101043.97;107589;1252;97925;-71